Terminal Aerodrome Forecast
Issued by NWS Billings, MT

Home | Current Version | Previous Version | Graphics & Text | Print | Product List | Glossary On
Versions: 1 2 3 4 5 6 7 8 9 10 11 12 13 14 15 16 17 18 19 20 21 22 23 24 25 26 27 28 29 30 31
000
FTUS45 KBYZ 220527
TAFMLS
TAF
KMLS 220527Z 2206/2306 01006KT P6SM VCSH BKN026 BKN070
     FM221200 08007KT P6SM VCSH SCT010 BKN025
     FM221800 09008KT P6SM VCSH SCT030 BKN050
     FM222100 08010KT 5SM -RA SCT015 OVC030=

USA.gov is the U.S. government's official web portal to all federal, state and local government web resources and services.